createdAt,value
2018-08-13T00:00:32.152Z,15.60
2018-08-13T00:02:59.960Z,15.60
2018-08-13T00:05:27.715Z,15.70
2018-08-13T00:08:02.048Z,15.60
2018-08-13T00:10:29.928Z,15.60
2018-08-13T00:12:57.978Z,15.50
2018-08-13T00:15:25.652Z,15.50
2018-08-13T00:17:53.224Z,15.40
2018-08-13T00:20:21.738Z,15.30
2018-08-13T00:22:49.524Z,15.40
2018-08-13T00:25:17.183Z,15.30
2018-08-13T00:27:44.864Z,15.30
2018-08-13T00:30:12.483Z,15.20
2018-08-13T00:32:40.132Z,15.10
2018-08-13T00:35:07.951Z,15.10
2018-08-13T00:37:35.579Z,15.10
2018-08-13T00:40:04.168Z,15.20
2018-08-13T00:42:31.851Z,15.20
2018-08-13T00:44:59.666Z,15.10
2018-08-13T00:47:27.628Z,15.20
2018-08-13T00:49:55.519Z,15.20
2018-08-13T00:52:23.121Z,15.10
2018-08-13T00:54:50.784Z,15.10
2018-08-13T00:57:18.497Z,15.10
2018-08-13T00:59:46.250Z,15.20
2018-08-13T01:02:13.959Z,15.20
2018-08-13T01:04:41.676Z,15.00
2018-08-13T01:07:09.387Z,15.00
2018-08-13T01:09:37.207Z,15.00
2018-08-13T01:12:04.900Z,14.90
2018-08-13T01:14:32.668Z,14.80
2018-08-13T01:17:00.336Z,14.70
2018-08-13T01:19:28.087Z,14.70
2018-08-13T01:21:55.664Z,14.80
2018-08-13T01:24:23.344Z,14.80
2018-08-13T01:26:51.011Z,14.80
2018-08-13T01:29:19.448Z,14.70
2018-08-13T01:31:47.256Z,14.70
2018-08-13T01:34:14.880Z,14.60
2018-08-13T01:36:42.564Z,14.50
2018-08-13T01:39:10.835Z,14.50
2018-08-13T01:41:38.524Z,14.40
2018-08-13T01:44:06.387Z,14.50
2018-08-13T01:46:34.359Z,14.50
2018-08-13T01:49:01.996Z,14.50
2018-08-13T01:51:29.655Z,14.50
2018-08-13T01:53:57.259Z,14.50
2018-08-13T01:56:25.020Z,14.50
2018-08-13T01:58:52.851Z,14.40
2018-08-13T02:01:20.641Z,14.40
2018-08-13T02:03:48.247Z,14.40
2018-08-13T02:06:15.887Z,14.30
2018-08-13T02:08:43.692Z,14.10
2018-08-13T02:11:11.360Z,14.20
2018-08-13T02:13:39.209Z,14.30
2018-08-13T02:16:06.904Z,14.30
2018-08-13T02:18:34.587Z,14.40
2018-08-13T02:21:02.213Z,14.30
2018-08-13T02:23:29.908Z,14.30
2018-08-13T02:25:57.551Z,14.40
2018-08-13T02:28:25.331Z,14.50
2018-08-13T02:30:54.183Z,14.40
2018-08-13T02:33:21.895Z,14.40
2018-08-13T02:35:49.566Z,14.40
2018-08-13T02:38:17.447Z,14.40
2018-08-13T02:40:45.080Z,14.40
2018-08-13T02:43:13.067Z,14.30
2018-08-13T02:45:41.360Z,14.30
2018-08-13T02:48:09.057Z,14.30
2018-08-13T02:50:36.796Z,14.40
2018-08-13T02:53:04.949Z,14.30
2018-08-13T02:55:32.787Z,14.30
2018-08-13T02:58:00.560Z,14.30
2018-08-13T03:00:28.324Z,14.30
2018-08-13T03:02:56.135Z,14.30
2018-08-13T03:05:23.808Z,14.30
2018-08-13T03:07:51.362Z,14.30
2018-08-13T03:10:19.115Z,14.20
2018-08-13T03:12:46.643Z,14.20
2018-08-13T03:15:14.805Z,14.20
2018-08-13T03:17:42.622Z,14.10
2018-08-13T03:20:10.448Z,14.10
2018-08-13T03:22:38.159Z,14.10
2018-08-13T03:25:09.045Z,14.20
2018-08-13T03:27:37.036Z,14.10
2018-08-13T03:30:09.286Z,14.10
2018-08-13T03:32:37.251Z,14.10
2018-08-13T03:35:04.911Z,14.00
2018-08-13T03:37:32.900Z,13.90
2018-08-13T03:40:00.609Z,14.00
2018-08-13T03:42:28.514Z,14.00
2018-08-13T03:44:56.077Z,14.00
2018-08-13T03:47:23.891Z,14.10
2018-08-13T03:49:51.511Z,14.00
2018-08-13T03:52:19.283Z,14.00
2018-08-13T03:54:46.864Z,14.00
2018-08-13T03:57:14.577Z,13.90
2018-08-13T03:59:42.332Z,14.00
2018-08-13T04:02:10.031Z,13.90
2018-08-13T04:04:37.827Z,13.90
2018-08-13T04:07:05.839Z,14.00
2018-08-13T04:09:33.483Z,14.00
2018-08-13T04:12:01.427Z,14.00
2018-08-13T04:14:29.455Z,14.00
2018-08-13T04:17:00.385Z,14.00
2018-08-13T04:19:28.860Z,14.00
2018-08-13T04:21:56.567Z,14.00
2018-08-13T04:24:24.275Z,13.90
2018-08-13T04:26:51.910Z,13.90
2018-08-13T04:29:19.617Z,14.00
2018-08-13T04:31:47.295Z,14.10
2018-08-13T04:34:15.262Z,14.10
2018-08-13T04:36:43.083Z,14.20
2018-08-13T04:39:12.328Z,14.20
2018-08-13T04:41:40.371Z,14.20
2018-08-13T04:44:08.886Z,14.20
2018-08-13T04:46:36.464Z,14.30
2018-08-13T04:49:04.064Z,14.20
2018-08-13T04:51:31.663Z,14.20
2018-08-13T04:53:59.332Z,14.30
2018-08-13T04:56:27.107Z,14.30
2018-08-13T04:58:55.589Z,14.30
2018-08-13T05:01:23.251Z,14.40
2018-08-13T05:03:50.839Z,14.50
2018-08-13T05:06:18.447Z,14.60
2018-08-13T05:08:46.099Z,14.80
2018-08-13T05:11:13.931Z,14.80
2018-08-13T05:13:41.675Z,15.00
2018-08-13T05:16:09.259Z,15.10
2018-08-13T05:18:36.831Z,15.20
2018-08-13T05:21:04.715Z,15.40
2018-08-13T05:23:32.375Z,15.50
2018-08-13T05:25:59.976Z,15.60
2018-08-13T05:28:27.593Z,15.70
2018-08-13T05:30:55.293Z,15.80
2018-08-13T05:33:23.140Z,16.00
2018-08-13T05:35:50.812Z,16.10
2018-08-13T05:38:19.243Z,16.30
2018-08-13T05:40:46.842Z,16.30
2018-08-13T05:43:14.740Z,16.40
2018-08-13T05:45:42.380Z,16.50
2018-08-13T05:48:10.372Z,16.70
2018-08-13T05:50:38.114Z,16.80
2018-08-13T05:53:05.963Z,17.00
2018-08-13T05:55:33.687Z,17.30
2018-08-13T05:58:01.399Z,17.50
2018-08-13T06:00:30.428Z,17.80
2018-08-13T06:02:58.195Z,18.00
2018-08-13T06:05:25.759Z,18.20
2018-08-13T06:07:53.519Z,18.50
2018-08-13T06:10:22.361Z,18.70
2018-08-13T06:12:49.940Z,18.90
2018-08-13T06:15:17.635Z,19.10
2018-08-13T06:17:45.275Z,19.30
2018-08-13T06:20:13.371Z,19.40
2018-08-13T06:22:43.231Z,19.60
2018-08-13T06:25:11.856Z,19.90
2018-08-13T06:27:40.135Z,20.10
2018-08-13T06:30:11.329Z,20.30
2018-08-13T06:32:39.500Z,20.60
2018-08-13T06:35:07.256Z,20.80
2018-08-13T06:37:34.996Z,21.00
2018-08-13T06:40:02.711Z,21.30
2018-08-13T06:42:30.299Z,21.50
2018-08-13T06:44:58.208Z,21.70
2018-08-13T06:47:25.935Z,22.00
2018-08-13T06:49:53.763Z,22.20
2018-08-13T06:52:21.338Z,22.40
2018-08-13T06:54:48.991Z,22.60
2018-08-13T06:57:16.560Z,22.70
2018-08-13T06:59:44.203Z,23.00
2018-08-13T07:02:11.844Z,23.10
2018-08-13T07:04:39.624Z,23.40
2018-08-13T07:07:07.443Z,23.50
2018-08-13T07:09:35.469Z,23.70
2018-08-13T07:12:03.126Z,23.90
2018-08-13T07:14:30.812Z,24.10
2018-08-13T07:16:58.496Z,24.30
2018-08-13T07:19:26.810Z,24.40
2018-08-13T07:21:54.504Z,24.50
2018-08-13T07:24:22.124Z,24.70
2018-08-13T07:26:50.065Z,24.80
2018-08-13T07:29:17.969Z,25.00
2018-08-13T07:31:46.256Z,25.10
2018-08-13T07:34:13.847Z,25.40
2018-08-13T07:36:41.592Z,25.80
2018-08-13T07:39:10.028Z,26.00
2018-08-13T07:41:38.116Z,26.30
2018-08-13T07:44:06.363Z,26.60
2018-08-13T07:46:34.073Z,26.80
2018-08-13T07:49:01.815Z,27.10
2018-08-13T07:51:30.150Z,27.10
2018-08-13T07:53:58.540Z,27.10
2018-08-13T07:56:26.575Z,27.10
2018-08-13T07:58:54.210Z,27.10
2018-08-13T08:01:22.276Z,26.70
2018-08-13T08:03:50.148Z,26.60
2018-08-13T08:06:18.568Z,26.40
2018-08-13T08:08:46.217Z,26.50
2018-08-13T08:11:13.900Z,26.60
2018-08-13T08:13:41.844Z,26.80
2018-08-13T08:16:09.616Z,26.90
2018-08-13T08:18:37.255Z,27.10
2018-08-13T08:21:05.020Z,26.90
2018-08-13T08:23:33.492Z,26.40
2018-08-13T08:26:01.255Z,26.30
2018-08-13T08:28:29.108Z,25.90
2018-08-13T08:30:56.842Z,26.00
2018-08-13T08:33:24.943Z,25.70
2018-08-13T08:35:52.729Z,25.50
2018-08-13T08:38:20.358Z,25.40
2018-08-13T08:40:47.944Z,25.40
2018-08-13T08:43:15.695Z,25.50
2018-08-13T08:45:43.469Z,25.60
2018-08-13T08:48:11.427Z,25.80
2018-08-13T08:50:39.011Z,25.80
2018-08-13T08:53:06.798Z,26.10
2018-08-13T08:55:34.431Z,26.20
2018-08-13T08:58:02.214Z,26.50
2018-08-13T09:00:29.976Z,26.50
2018-08-13T09:02:57.612Z,26.40
2018-08-13T09:05:25.431Z,26.00
2018-08-13T09:07:53.171Z,26.10
2018-08-13T09:10:20.915Z,25.70
2018-08-13T09:12:48.595Z,25.60
2018-08-13T09:15:17.090Z,25.70
2018-08-13T09:17:57.483Z,25.70
2018-08-13T09:20:36.501Z,25.90
2018-08-13T09:23:15.520Z,25.50
2018-08-13T09:25:54.560Z,25.50
2018-08-13T09:28:33.528Z,25.70
2018-08-13T09:31:12.517Z,25.40
2018-08-13T09:33:51.507Z,25.40
2018-08-13T09:36:19.859Z,25.90
2018-08-13T09:38:47.445Z,26.20
2018-08-13T09:41:15.175Z,26.20
2018-08-13T09:43:42.919Z,26.40
2018-08-13T09:46:12.048Z,26.00
2018-08-13T09:48:39.669Z,26.10
2018-08-13T09:51:07.607Z,26.00
2018-08-13T09:53:35.282Z,26.10
2018-08-13T09:56:03.048Z,26.00
2018-08-13T09:58:31.168Z,25.80
2018-08-13T10:01:04.355Z,25.80
2018-08-13T10:03:31.984Z,25.70
2018-08-13T10:05:59.600Z,25.80
2018-08-13T10:08:27.829Z,25.60
2018-08-13T10:10:55.500Z,25.60
2018-08-13T10:13:23.306Z,25.40
2018-08-13T10:15:50.914Z,25.20
2018-08-13T10:18:18.899Z,25.30
2018-08-13T10:20:47.111Z,25.30
2018-08-13T10:23:14.873Z,25.20
2018-08-13T10:25:42.547Z,25.30
2018-08-13T10:28:10.111Z,25.30
2018-08-13T10:30:37.867Z,25.40
2018-08-13T10:33:05.469Z,25.30
2018-08-13T10:35:33.128Z,25.20
2018-08-13T10:38:00.864Z,24.60
2018-08-13T10:40:30.217Z,24.60
2018-08-13T10:42:58.140Z,24.50
2018-08-13T10:45:25.907Z,24.30
2018-08-13T10:47:53.555Z,24.20
2018-08-13T10:50:22.224Z,24.20
2018-08-13T10:52:50.220Z,24.10
2018-08-13T10:55:18.135Z,24.00
2018-08-13T10:57:45.777Z,24.40
2018-08-13T11:00:14.909Z,24.50
2018-08-13T11:02:42.767Z,25.00
2018-08-13T11:05:12.914Z,25.30
2018-08-13T11:07:40.521Z,25.30
2018-08-13T11:10:10.813Z,25.40
2018-08-13T11:12:38.739Z,25.30
2018-08-13T11:15:13.425Z,25.50
2018-08-13T11:17:41.847Z,25.20
2018-08-13T11:20:09.972Z,25.10
2018-08-13T11:22:38.511Z,25.40
2018-08-13T11:25:07.759Z,25.60
2018-08-13T11:27:35.563Z,25.60
2018-08-13T11:30:04.073Z,25.50
2018-08-13T11:32:31.732Z,25.60
2018-08-13T11:34:59.408Z,25.70
2018-08-13T11:37:27.055Z,25.30
2018-08-13T11:39:54.645Z,25.60
2018-08-13T11:42:22.403Z,25.50
2018-08-13T11:44:50.044Z,25.30
2018-08-13T11:47:17.764Z,25.20
2018-08-13T11:49:45.392Z,25.50
2018-08-13T11:52:14.092Z,25.20
2018-08-13T11:54:41.659Z,24.90
2018-08-13T11:57:09.380Z,24.50
2018-08-13T11:59:38.643Z,24.40
2018-08-13T12:02:06.549Z,24.50
2018-08-13T12:04:35.098Z,24.40
2018-08-13T12:07:03.421Z,24.50
2018-08-13T12:09:31.184Z,24.60
2018-08-13T12:11:58.855Z,24.70
2018-08-13T12:14:26.503Z,25.00
2018-08-13T12:16:54.215Z,24.90
2018-08-13T12:19:21.839Z,24.70
2018-08-13T12:21:49.455Z,24.60
2018-08-13T12:24:17.484Z,24.50
2018-08-13T12:26:45.660Z,24.40
2018-08-13T12:29:13.217Z,24.10
2018-08-13T12:31:40.943Z,24.20
2018-08-13T12:34:08.697Z,24.00
2018-08-13T12:36:36.384Z,24.20
2018-08-13T12:39:08.652Z,24.30
2018-08-13T12:41:36.436Z,24.50
2018-08-13T12:44:04.155Z,24.30
2018-08-13T12:46:31.865Z,24.30
2018-08-13T12:48:59.564Z,24.10
2018-08-13T12:51:27.143Z,23.90
2018-08-13T12:53:54.713Z,24.10
2018-08-13T12:56:22.448Z,24.00
2018-08-13T12:58:50.183Z,24.00
2018-08-13T13:01:17.880Z,24.00
2018-08-13T13:03:45.548Z,24.10
2018-08-13T13:06:13.403Z,24.10
2018-08-13T13:08:41.272Z,24.10
2018-08-13T13:11:09.074Z,24.30
2018-08-13T13:13:36.903Z,24.40
2018-08-13T13:16:04.645Z,24.60
2018-08-13T13:18:32.388Z,24.60
2018-08-13T13:20:59.985Z,24.70
2018-08-13T13:23:27.747Z,24.80
2018-08-13T13:25:55.523Z,24.90
2018-08-13T13:28:23.324Z,24.70
2018-08-13T13:30:51.138Z,24.50
2018-08-13T13:33:19.216Z,24.50
2018-08-13T13:35:46.811Z,24.60
2018-08-13T13:38:14.508Z,24.30
2018-08-13T13:40:42.287Z,24.40
2018-08-13T13:43:10.097Z,24.40
2018-08-13T13:45:37.915Z,24.10
2018-08-13T13:48:06.860Z,24.00
2018-08-13T13:50:34.615Z,24.00
2018-08-13T13:53:02.884Z,23.80
2018-08-13T13:55:30.563Z,23.80
2018-08-13T13:57:58.156Z,23.60
2018-08-13T14:00:25.724Z,23.60
2018-08-13T14:02:53.655Z,23.70
2018-08-13T14:05:21.269Z,23.50
2018-08-13T14:07:49.227Z,23.60
2018-08-13T14:10:19.516Z,23.30
2018-08-13T14:12:47.367Z,23.50
2018-08-13T14:15:16.524Z,23.50
2018-08-13T14:17:44.360Z,23.50
2018-08-13T14:20:12.113Z,23.70
2018-08-13T14:22:40.432Z,23.60
2018-08-13T14:25:10.418Z,23.50
2018-08-13T14:27:38.560Z,23.60
2018-08-13T14:30:23.773Z,23.60
2018-08-13T14:32:51.556Z,23.60
2018-08-13T14:35:20.286Z,23.50
2018-08-13T14:37:48.305Z,23.60
2018-08-13T14:40:16.086Z,23.70
2018-08-13T14:42:44.828Z,23.70
2018-08-13T14:45:13.970Z,23.70
2018-08-13T14:47:43.211Z,23.90
2018-08-13T14:50:11.547Z,24.10
2018-08-13T14:52:40.645Z,24.30
2018-08-13T14:55:08.339Z,24.50
2018-08-13T14:57:36.151Z,24.50
2018-08-13T15:00:09.383Z,24.60
2018-08-13T15:02:38.113Z,24.60
2018-08-13T15:05:05.907Z,24.80
2018-08-13T15:07:33.553Z,24.90
2018-08-13T15:10:01.288Z,24.90
2018-08-13T15:12:29.087Z,25.00
2018-08-13T15:14:56.872Z,25.10
2018-08-13T15:17:25.192Z,25.10
2018-08-13T15:19:52.881Z,24.90
2018-08-13T15:22:20.595Z,24.60
2018-08-13T15:24:48.484Z,24.90
2018-08-13T15:27:16.290Z,24.90
2018-08-13T15:29:43.939Z,24.60
2018-08-13T15:32:11.688Z,24.70
2018-08-13T15:34:39.328Z,24.70
2018-08-13T15:37:07.123Z,24.80
2018-08-13T15:39:34.935Z,24.80
2018-08-13T15:42:02.881Z,24.80
2018-08-13T15:44:30.560Z,24.80
2018-08-13T15:46:58.251Z,24.80
2018-08-13T15:49:26.004Z,24.90
2018-08-13T15:51:53.738Z,25.20
2018-08-13T15:54:21.556Z,25.60
2018-08-13T15:56:49.224Z,25.70
2018-08-13T15:59:16.856Z,25.70
2018-08-13T16:01:44.738Z,25.60
2018-08-13T16:04:12.323Z,25.40
2018-08-13T16:06:39.852Z,25.40
2018-08-13T16:09:07.495Z,25.10
2018-08-13T16:11:35.148Z,25.10
2018-08-13T16:14:02.983Z,24.80
2018-08-13T16:16:30.600Z,24.80
2018-08-13T16:19:02.335Z,24.80
2018-08-13T16:21:30.029Z,24.50
2018-08-13T16:23:57.928Z,24.30
2018-08-13T16:26:25.596Z,24.10
2018-08-13T16:28:53.851Z,24.20
2018-08-13T16:31:22.806Z,24.30
2018-08-13T16:33:50.636Z,24.30
2018-08-13T16:36:18.280Z,24.20
2018-08-13T16:38:46.128Z,24.10
2018-08-13T16:41:18.239Z,24.10
2018-08-13T16:43:45.816Z,24.10
2018-08-13T16:46:13.565Z,24.20
2018-08-13T16:48:41.516Z,24.10
2018-08-13T16:51:09.247Z,24.10
2018-08-13T16:53:36.888Z,24.10
2018-08-13T16:56:04.943Z,23.90
2018-08-13T16:58:32.813Z,23.90
2018-08-13T17:01:00.893Z,23.80
2018-08-13T17:03:28.519Z,23.80
2018-08-13T17:05:56.407Z,23.80
2018-08-13T17:08:24.140Z,23.70
2018-08-13T17:10:51.875Z,23.70
2018-08-13T17:13:19.609Z,23.70
2018-08-13T17:15:47.280Z,23.70
2018-08-13T17:18:15.758Z,23.70
2018-08-13T17:20:43.575Z,23.60
2018-08-13T17:23:11.234Z,23.40
2018-08-13T17:25:38.971Z,23.20
2018-08-13T17:28:06.994Z,22.60
2018-08-13T17:30:35.592Z,22.40
2018-08-13T17:33:03.412Z,22.00
2018-08-13T17:35:32.804Z,21.30
2018-08-13T17:38:01.378Z,20.70
2018-08-13T17:40:30.005Z,20.70
2018-08-13T17:42:57.996Z,20.60
2018-08-13T17:45:25.831Z,20.40
2018-08-13T17:47:53.512Z,20.10
2018-08-13T17:50:21.739Z,19.80
2018-08-13T17:52:49.543Z,19.70
2018-08-13T17:55:17.652Z,19.70
2018-08-13T17:57:45.944Z,19.70
2018-08-13T18:00:19.919Z,19.60
2018-08-13T18:02:47.816Z,19.60
2018-08-13T18:05:17.827Z,19.60
2018-08-13T18:07:46.367Z,19.60
2018-08-13T18:10:22.563Z,19.60
2018-08-13T18:12:50.371Z,19.70
2018-08-13T18:15:18.444Z,19.70
2018-08-13T18:17:46.700Z,19.70
2018-08-13T18:20:15.308Z,19.80
2018-08-13T18:22:44.068Z,19.80
2018-08-13T18:25:13.092Z,19.90
2018-08-13T18:27:42.393Z,19.90
2018-08-13T18:30:12.936Z,19.90
2018-08-13T18:32:40.624Z,19.90
2018-08-13T18:35:08.790Z,19.90
2018-08-13T18:37:36.584Z,19.90
2018-08-13T18:40:07.138Z,19.90
2018-08-13T18:42:35.054Z,19.90
2018-08-13T18:45:02.752Z,19.80
2018-08-13T18:47:30.480Z,19.90
2018-08-13T18:49:58.148Z,19.90
2018-08-13T18:52:26.475Z,19.80
2018-08-13T18:54:54.864Z,19.90
2018-08-13T18:57:22.578Z,19.90
2018-08-13T18:59:50.523Z,19.90
2018-08-13T19:02:18.132Z,19.80
2018-08-13T19:04:46.035Z,19.80
2018-08-13T19:07:13.624Z,19.90
2018-08-13T19:09:41.898Z,19.80
2018-08-13T19:12:09.694Z,19.90
2018-08-13T19:14:37.325Z,19.90
2018-08-13T19:17:07.824Z,19.80
2018-08-13T19:19:36.605Z,19.80
2018-08-13T19:22:04.348Z,19.80
2018-08-13T19:24:32.411Z,19.80
2018-08-13T19:27:00.916Z,19.70
2018-08-13T19:29:29.099Z,19.60
2018-08-13T19:31:56.851Z,19.70
2018-08-13T19:34:24.631Z,19.60
2018-08-13T19:36:52.525Z,19.50
2018-08-13T19:39:20.376Z,19.50
2018-08-13T19:41:48.691Z,19.40
2018-08-13T19:44:17.127Z,19.40
2018-08-13T19:46:45.151Z,19.30
2018-08-13T19:49:14.348Z,19.40
2018-08-13T19:51:43.167Z,19.40
2018-08-13T19:54:11.743Z,19.30
2018-08-13T19:56:39.444Z,19.20
2018-08-13T19:59:07.107Z,19.30
2018-08-13T20:01:34.895Z,19.30
2018-08-13T20:04:02.956Z,19.40
2018-08-13T20:06:30.614Z,19.40
2018-08-13T20:08:58.448Z,19.30
2018-08-13T20:11:26.204Z,19.20
2018-08-13T20:13:53.933Z,19.30
2018-08-13T20:16:21.572Z,19.20
2018-08-13T20:18:49.311Z,19.10
2018-08-13T20:21:16.911Z,19.00
2018-08-13T20:23:44.596Z,19.00
2018-08-13T20:26:12.405Z,19.00
2018-08-13T20:28:40.249Z,18.90
2018-08-13T20:31:08.016Z,18.80
2018-08-13T20:33:35.782Z,18.90
2018-08-13T20:36:03.467Z,18.80
2018-08-13T20:38:31.138Z,18.80
2018-08-13T20:40:58.859Z,18.80
2018-08-13T20:43:27.290Z,18.80
2018-08-13T20:45:54.816Z,18.90
2018-08-13T20:48:23.172Z,18.90
2018-08-13T20:50:51.551Z,18.90
2018-08-13T20:53:19.371Z,18.90
2018-08-13T20:55:47.896Z,18.80
2018-08-13T20:58:16.211Z,18.70
2018-08-13T21:00:44.012Z,18.80
2018-08-13T21:03:11.667Z,18.90
2018-08-13T21:05:40.091Z,18.80
2018-08-13T21:08:08.111Z,18.90
2018-08-13T21:10:36.129Z,18.80
2018-08-13T21:13:04.017Z,18.60
2018-08-13T21:15:31.696Z,18.60
2018-08-13T21:17:59.492Z,18.70
2018-08-13T21:20:28.410Z,18.80
2018-08-13T21:22:56.263Z,18.70
2018-08-13T21:25:24.029Z,18.70
2018-08-13T21:27:52.020Z,18.70
2018-08-13T21:30:19.772Z,18.70
2018-08-13T21:32:47.522Z,18.80
2018-08-13T21:35:19.312Z,18.80
2018-08-13T21:37:47.515Z,18.80
2018-08-13T21:40:15.389Z,18.80
2018-08-13T21:42:43.695Z,18.80
2018-08-13T21:45:11.817Z,18.70
2018-08-13T21:47:39.808Z,18.80
2018-08-13T21:50:10.735Z,18.80
2018-08-13T21:52:38.610Z,18.80
2018-08-13T21:55:07.411Z,18.80
2018-08-13T21:57:35.115Z,18.70
2018-08-13T22:00:02.962Z,18.70
2018-08-13T22:02:30.652Z,18.60
2018-08-13T22:04:58.264Z,18.50
2018-08-13T22:07:25.967Z,18.40
2018-08-13T22:09:53.783Z,18.30
2018-08-13T22:12:22.049Z,18.40
2018-08-13T22:14:49.967Z,18.40
2018-08-13T22:17:17.703Z,18.40
2018-08-13T22:19:45.511Z,18.40
2018-08-13T22:22:13.932Z,18.40
2018-08-13T22:24:55.788Z,18.30
2018-08-13T22:27:23.504Z,18.30
2018-08-13T22:29:51.555Z,18.40
2018-08-13T22:32:19.244Z,18.50
2018-08-13T22:34:46.988Z,18.50
2018-08-13T22:37:14.628Z,18.50
2018-08-13T22:39:42.903Z,18.50
2018-08-13T22:42:11.395Z,18.50
2018-08-13T22:44:39.143Z,18.60
2018-08-13T22:47:06.980Z,18.60
2018-08-13T22:49:34.682Z,18.60
2018-08-13T22:52:02.389Z,18.60
2018-08-13T22:54:30.753Z,18.50
2018-08-13T22:56:58.411Z,18.50
2018-08-13T22:59:25.965Z,18.50
2018-08-13T23:01:53.661Z,18.50
2018-08-13T23:04:23.051Z,18.50
2018-08-13T23:06:50.772Z,18.60
2018-08-13T23:09:18.352Z,18.60
2018-08-13T23:11:46.066Z,18.60
2018-08-13T23:14:13.734Z,18.50
2018-08-13T23:16:42.079Z,18.40
2018-08-13T23:19:09.663Z,18.50
2018-08-13T23:21:37.340Z,18.50
2018-08-13T23:24:05.568Z,18.40
2018-08-13T23:26:33.416Z,18.40
2018-08-13T23:29:01.240Z,18.50
2018-08-13T23:31:29.027Z,18.50
2018-08-13T23:33:56.623Z,18.50
2018-08-13T23:36:24.340Z,18.50
2018-08-13T23:38:51.930Z,18.40
2018-08-13T23:41:19.844Z,18.50
2018-08-13T23:43:47.584Z,18.40
2018-08-13T23:46:15.769Z,18.50
2018-08-13T23:48:43.470Z,18.50
2018-08-13T23:51:11.363Z,18.40
2018-08-13T23:53:39.060Z,18.40
2018-08-13T23:56:06.676Z,18.40
2018-08-13T23:58:34.403Z,18.40
